sensor_id;sensor_type;location;lat;lon;timestamp;P1;durP1;ratioP1;P2;durP2;ratioP2
60700;SDS011;46541;49.894;10.886;2023-07-02T00:02:26;2.10;;;1.88;;
60700;SDS011;46541;49.894;10.886;2023-07-02T00:04:53;3.05;;;2.35;;
60700;SDS011;46541;49.894;10.886;2023-07-02T00:07:20;3.45;;;1.98;;
60700;SDS011;46541;49.894;10.886;2023-07-02T00:09:47;2.75;;;1.80;;
60700;SDS011;46541;49.894;10.886;2023-07-02T00:12:16;1.95;;;1.77;;
60700;SDS011;46541;49.894;10.886;2023-07-02T00:14:43;2.60;;;1.77;;
60700;SDS011;46541;49.894;10.886;2023-07-02T00:17:10;2.40;;;2.15;;
60700;SDS011;46541;49.894;10.886;2023-07-02T00:19:39;2.85;;;2.00;;
60700;SDS011;46541;49.894;10.886;2023-07-02T00:22:08;2.50;;;2.10;;
60700;SDS011;46541;49.894;10.886;2023-07-02T00:24:36;2.40;;;2.20;;
60700;SDS011;46541;49.894;10.886;2023-07-02T00:27:03;5.35;;;2.92;;
60700;SDS011;46541;49.894;10.886;2023-07-02T00:29:30;4.50;;;2.40;;
60700;SDS011;46541;49.894;10.886;2023-07-02T00:31:57;6.75;;;2.83;;
60700;SDS011;46541;49.894;10.886;2023-07-02T00:34:23;4.68;;;2.97;;
60700;SDS011;46541;49.894;10.886;2023-07-02T00:36:51;2.92;;;2.50;;
60700;SDS011;46541;49.894;10.886;2023-07-02T00:39:18;3.25;;;2.60;;
60700;SDS011;46541;49.894;10.886;2023-07-02T00:41:45;3.42;;;2.20;;
60700;SDS011;46541;49.894;10.886;2023-07-02T00:44:13;5.07;;;2.55;;
60700;SDS011;46541;49.894;10.886;2023-07-02T00:46:40;4.00;;;2.28;;
60700;SDS011;46541;49.894;10.886;2023-07-02T00:49:07;4.65;;;3.15;;
60700;SDS011;46541;49.894;10.886;2023-07-02T00:51:35;3.60;;;3.00;;
60700;SDS011;46541;49.894;10.886;2023-07-02T00:54:03;3.65;;;2.80;;
60700;SDS011;46541;49.894;10.886;2023-07-02T00:56:30;3.70;;;2.05;;
60700;SDS011;46541;49.894;10.886;2023-07-02T00:58:57;4.70;;;2.83;;
60700;SDS011;46541;49.894;10.886;2023-07-02T01:01:26;3.95;;;2.75;;
60700;SDS011;46541;49.894;10.886;2023-07-02T01:06:30;3.55;;;2.80;;
60700;SDS011;46541;49.894;10.886;2023-07-02T01:09:03;4.00;;;2.45;;
60700;SDS011;46541;49.894;10.886;2023-07-02T01:11:31;3.60;;;2.80;;
60700;SDS011;46541;49.894;10.886;2023-07-02T01:14:02;4.43;;;3.00;;
60700;SDS011;46541;49.894;10.886;2023-07-02T01:16:31;3.55;;;2.63;;
60700;SDS011;46541;49.894;10.886;2023-07-02T01:19:01;4.13;;;2.63;;
60700;SDS011;46541;49.894;10.886;2023-07-02T01:21:31;4.35;;;2.72;;
60700;SDS011;46541;49.894;10.886;2023-07-02T01:24:01;3.38;;;2.83;;
60700;SDS011;46541;49.894;10.886;2023-07-02T01:26:29;3.13;;;2.80;;
60700;SDS011;46541;49.894;10.886;2023-07-02T01:29:12;6.13;;;2.70;;
60700;SDS011;46541;49.894;10.886;2023-07-02T01:31:46;4.88;;;2.95;;
60700;SDS011;46541;49.894;10.886;2023-07-02T01:34:14;4.55;;;2.92;;
60700;SDS011;46541;49.894;10.886;2023-07-02T01:36:41;3.40;;;2.72;;
60700;SDS011;46541;49.894;10.886;2023-07-02T01:39:08;5.35;;;3.17;;
60700;SDS011;46541;49.894;10.886;2023-07-02T01:41:51;4.18;;;3.15;;
60700;SDS011;46541;49.894;10.886;2023-07-02T01:44:22;5.00;;;2.70;;
60700;SDS011;46541;49.894;10.886;2023-07-02T01:46:48;3.50;;;2.97;;
60700;SDS011;46541;49.894;10.886;2023-07-02T01:49:18;5.32;;;3.30;;
60700;SDS011;46541;49.894;10.886;2023-07-02T01:51:52;5.00;;;2.97;;
60700;SDS011;46541;49.894;10.886;2023-07-02T01:54:20;3.33;;;3.00;;
60700;SDS011;46541;49.894;10.886;2023-07-02T01:56:48;4.50;;;3.42;;
60700;SDS011;46541;49.894;10.886;2023-07-02T01:59:15;3.88;;;3.05;;
60700;SDS011;46541;49.894;10.886;2023-07-02T02:01:45;3.65;;;3.17;;
60700;SDS011;46541;49.894;10.886;2023-07-02T02:04:12;4.28;;;3.15;;
60700;SDS011;46541;49.894;10.886;2023-07-02T02:06:40;3.88;;;3.20;;
60700;SDS011;46541;49.894;10.886;2023-07-02T02:09:07;4.78;;;3.38;;
60700;SDS011;46541;49.894;10.886;2023-07-02T02:11:37;3.92;;;3.35;;
60700;SDS011;46541;49.894;10.886;2023-07-02T02:14:05;4.15;;;3.30;;
60700;SDS011;46541;49.894;10.886;2023-07-02T02:16:32;5.43;;;3.42;;
60700;SDS011;46541;49.894;10.886;2023-07-02T02:19:02;3.85;;;3.35;;
60700;SDS011;46541;49.894;10.886;2023-07-02T02:21:30;4.07;;;3.10;;
60700;SDS011;46541;49.894;10.886;2023-07-02T02:23:57;5.35;;;3.20;;
60700;SDS011;46541;49.894;10.886;2023-07-02T02:26:24;3.53;;;3.03;;
60700;SDS011;46541;49.894;10.886;2023-07-02T02:28:51;5.25;;;3.20;;
60700;SDS011;46541;49.894;10.886;2023-07-02T02:31:18;3.50;;;3.03;;
60700;SDS011;46541;49.894;10.886;2023-07-02T02:33:45;4.50;;;3.00;;
60700;SDS011;46541;49.894;10.886;2023-07-02T02:36:12;3.72;;;3.33;;
60700;SDS011;46541;49.894;10.886;2023-07-02T02:38:39;4.30;;;3.28;;
60700;SDS011;46541;49.894;10.886;2023-07-02T02:41:06;7.05;;;3.05;;
60700;SDS011;46541;49.894;10.886;2023-07-02T02:43:34;4.63;;;3.17;;
60700;SDS011;46541;49.894;10.886;2023-07-02T02:46:01;4.28;;;2.70;;
60700;SDS011;46541;49.894;10.886;2023-07-02T02:48:28;5.47;;;2.67;;
60700;SDS011;46541;49.894;10.886;2023-07-02T02:50:55;3.20;;;2.90;;
60700;SDS011;46541;49.894;10.886;2023-07-02T02:53:21;3.63;;;2.88;;
60700;SDS011;46541;49.894;10.886;2023-07-02T02:55:48;4.90;;;3.17;;
60700;SDS011;46541;49.894;10.886;2023-07-02T02:58:15;3.97;;;2.78;;
60700;SDS011;46541;49.894;10.886;2023-07-02T03:00:42;5.45;;;2.75;;
60700;SDS011;46541;49.894;10.886;2023-07-02T03:03:12;3.90;;;3.00;;
60700;SDS011;46541;49.894;10.886;2023-07-02T03:05:40;3.20;;;2.90;;
60700;SDS011;46541;49.894;10.886;2023-07-02T03:08:07;3.75;;;2.80;;
60700;SDS011;46541;49.894;10.886;2023-07-02T03:10:33;6.63;;;3.15;;
60700;SDS011;46541;49.894;10.886;2023-07-02T03:13:00;3.53;;;3.00;;
60700;SDS011;46541;49.894;10.886;2023-07-02T03:15:27;5.07;;;3.13;;
60700;SDS011;46541;49.894;10.886;2023-07-02T03:17:54;3.30;;;2.88;;
60700;SDS011;46541;49.894;10.886;2023-07-02T03:20:20;3.63;;;2.42;;
60700;SDS011;46541;49.894;10.886;2023-07-02T03:22:47;3.15;;;2.85;;
60700;SDS011;46541;49.894;10.886;2023-07-02T03:25:14;3.17;;;2.72;;
60700;SDS011;46541;49.894;10.886;2023-07-02T03:27:42;5.38;;;3.08;;
60700;SDS011;46541;49.894;10.886;2023-07-02T03:30:08;3.60;;;2.35;;
60700;SDS011;46541;49.894;10.886;2023-07-02T03:32:36;2.97;;;2.67;;
60700;SDS011;46541;49.894;10.886;2023-07-02T03:35:02;5.22;;;3.08;;
60700;SDS011;46541;49.894;10.886;2023-07-02T03:37:30;4.00;;;3.10;;
60700;SDS011;46541;49.894;10.886;2023-07-02T03:39:56;5.57;;;2.80;;
60700;SDS011;46541;49.894;10.886;2023-07-02T03:42:24;3.35;;;2.83;;
60700;SDS011;46541;49.894;10.886;2023-07-02T03:44:51;3.88;;;2.80;;
60700;SDS011;46541;49.894;10.886;2023-07-02T03:47:18;4.03;;;3.05;;
60700;SDS011;46541;49.894;10.886;2023-07-02T03:49:45;4.65;;;2.92;;
60700;SDS011;46541;49.894;10.886;2023-07-02T03:52:13;6.40;;;2.67;;
60700;SDS011;46541;49.894;10.886;2023-07-02T03:54:39;5.70;;;2.50;;
60700;SDS011;46541;49.894;10.886;2023-07-02T03:57:06;6.20;;;3.83;;
60700;SDS011;46541;49.894;10.886;2023-07-02T03:59:34;5.32;;;2.95;;
60700;SDS011;46541;49.894;10.886;2023-07-02T04:02:01;4.20;;;2.67;;
60700;SDS011;46541;49.894;10.886;2023-07-02T04:04:28;4.22;;;2.55;;
60700;SDS011;46541;49.894;10.886;2023-07-02T04:06:54;5.43;;;2.97;;
60700;SDS011;46541;49.894;10.886;2023-07-02T04:09:21;3.33;;;2.97;;
60700;SDS011;46541;49.894;10.886;2023-07-02T04:11:48;3.60;;;2.45;;
60700;SDS011;46541;49.894;10.886;2023-07-02T04:14:15;4.53;;;2.90;;
60700;SDS011;46541;49.894;10.886;2023-07-02T04:16:43;3.65;;;2.95;;
60700;SDS011;46541;49.894;10.886;2023-07-02T04:19:13;9.48;;;3.05;;
60700;SDS011;46541;49.894;10.886;2023-07-02T04:21:40;3.40;;;2.33;;
60700;SDS011;46541;49.894;10.886;2023-07-02T04:24:07;4.40;;;2.10;;
60700;SDS011;46541;49.894;10.886;2023-07-02T04:26:34;3.72;;;2.40;;
60700;SDS011;46541;49.894;10.886;2023-07-02T04:29:22;5.82;;;2.60;;
60700;SDS011;46541;49.894;10.886;2023-07-02T04:31:49;5.55;;;1.85;;
60700;SDS011;46541;49.894;10.886;2023-07-02T04:34:16;4.53;;;2.33;;
60700;SDS011;46541;49.894;10.886;2023-07-02T04:36:43;3.20;;;2.20;;
60700;SDS011;46541;49.894;10.886;2023-07-02T04:39:10;5.20;;;2.40;;
60700;SDS011;46541;49.894;10.886;2023-07-02T04:41:37;3.20;;;2.35;;
60700;SDS011;46541;49.894;10.886;2023-07-02T04:44:04;5.10;;;2.15;;
60700;SDS011;46541;49.894;10.886;2023-07-02T04:46:30;2.95;;;1.95;;
60700;SDS011;46541;49.894;10.886;2023-07-02T04:48:57;2.83;;;1.92;;
60700;SDS011;46541;49.894;10.886;2023-07-02T04:51:24;4.88;;;3.10;;
60700;SDS011;46541;49.894;10.886;2023-07-02T04:53:51;6.75;;;2.72;;
60700;SDS011;46541;49.894;10.886;2023-07-02T04:56:18;4.43;;;3.10;;
60700;SDS011;46541;49.894;10.886;2023-07-02T04:58:45;6.47;;;3.33;;
60700;SDS011;46541;49.894;10.886;2023-07-02T05:01:11;6.28;;;3.88;;
60700;SDS011;46541;49.894;10.886;2023-07-02T05:03:38;7.85;;;3.28;;
60700;SDS011;46541;49.894;10.886;2023-07-02T05:06:05;7.00;;;3.00;;
60700;SDS011;46541;49.894;10.886;2023-07-02T05:08:32;6.68;;;3.13;;
60700;SDS011;46541;49.894;10.886;2023-07-02T05:10:59;11.35;;;3.75;;
60700;SDS011;46541;49.894;10.886;2023-07-02T05:13:25;9.25;;;3.42;;
60700;SDS011;46541;49.894;10.886;2023-07-02T05:15:52;4.90;;;2.78;;
60700;SDS011;46541;49.894;10.886;2023-07-02T05:18:19;7.35;;;3.25;;
60700;SDS011;46541;49.894;10.886;2023-07-02T05:20:46;6.72;;;2.95;;
60700;SDS011;46541;49.894;10.886;2023-07-02T05:23:13;5.82;;;2.97;;
60700;SDS011;46541;49.894;10.886;2023-07-02T05:25:40;8.13;;;3.13;;
60700;SDS011;46541;49.894;10.886;2023-07-02T05:28:07;6.38;;;2.92;;
60700;SDS011;46541;49.894;10.886;2023-07-02T05:30:33;6.28;;;3.17;;
60700;SDS011;46541;49.894;10.886;2023-07-02T05:33:00;6.90;;;3.70;;
60700;SDS011;46541;49.894;10.886;2023-07-02T05:35:27;6.43;;;3.33;;
60700;SDS011;46541;49.894;10.886;2023-07-02T05:37:54;7.82;;;3.78;;
60700;SDS011;46541;49.894;10.886;2023-07-02T05:40:21;5.78;;;3.60;;
60700;SDS011;46541;49.894;10.886;2023-07-02T05:42:47;6.80;;;4.20;;
60700;SDS011;46541;49.894;10.886;2023-07-02T05:45:14;10.60;;;4.32;;
60700;SDS011;46541;49.894;10.886;2023-07-02T05:47:41;11.07;;;4.63;;
60700;SDS011;46541;49.894;10.886;2023-07-02T05:50:08;9.40;;;4.50;;
60700;SDS011;46541;49.894;10.886;2023-07-02T05:52:35;7.25;;;4.53;;
60700;SDS011;46541;49.894;10.886;2023-07-02T05:55:02;7.53;;;4.20;;
60700;SDS011;46541;49.894;10.886;2023-07-02T05:57:29;8.55;;;4.15;;
60700;SDS011;46541;49.894;10.886;2023-07-02T05:59:56;7.80;;;4.15;;
60700;SDS011;46541;49.894;10.886;2023-07-02T06:02:23;6.78;;;4.10;;
60700;SDS011;46541;49.894;10.886;2023-07-02T06:04:50;9.98;;;4.45;;
60700;SDS011;46541;49.894;10.886;2023-07-02T06:07:16;9.55;;;4.07;;
60700;SDS011;46541;49.894;10.886;2023-07-02T06:09:43;9.18;;;4.55;;
60700;SDS011;46541;49.894;10.886;2023-07-02T06:12:10;6.43;;;4.38;;
60700;SDS011;46541;49.894;10.886;2023-07-02T06:14:37;7.18;;;4.13;;
60700;SDS011;46541;49.894;10.886;2023-07-02T06:17:03;8.52;;;4.55;;
60700;SDS011;46541;49.894;10.886;2023-07-02T06:19:33;8.32;;;4.38;;
60700;SDS011;46541;49.894;10.886;2023-07-02T06:22:00;6.80;;;4.47;;
60700;SDS011;46541;49.894;10.886;2023-07-02T06:24:26;9.95;;;4.60;;
60700;SDS011;46541;49.894;10.886;2023-07-02T06:26:53;11.07;;;4.15;;
60700;SDS011;46541;49.894;10.886;2023-07-02T06:29:21;8.15;;;4.50;;
60700;SDS011;46541;49.894;10.886;2023-07-02T06:31:49;8.00;;;4.10;;
60700;SDS011;46541;49.894;10.886;2023-07-02T06:34:16;8.35;;;4.15;;
60700;SDS011;46541;49.894;10.886;2023-07-02T06:36:43;8.10;;;4.47;;
60700;SDS011;46541;49.894;10.886;2023-07-02T06:39:09;7.95;;;4.47;;
60700;SDS011;46541;49.894;10.886;2023-07-02T06:41:36;11.15;;;4.60;;
60700;SDS011;46541;49.894;10.886;2023-07-02T06:44:03;8.98;;;4.82;;
60700;SDS011;46541;49.894;10.886;2023-07-02T06:46:30;8.93;;;4.95;;
60700;SDS011;46541;49.894;10.886;2023-07-02T06:48:57;9.13;;;4.53;;
60700;SDS011;46541;49.894;10.886;2023-07-02T06:51:24;8.25;;;4.78;;
60700;SDS011;46541;49.894;10.886;2023-07-02T06:53:52;10.15;;;5.38;;
60700;SDS011;46541;49.894;10.886;2023-07-02T06:56:19;7.35;;;4.00;;
60700;SDS011;46541;49.894;10.886;2023-07-02T06:58:45;9.35;;;4.43;;
60700;SDS011;46541;49.894;10.886;2023-07-02T07:01:12;7.18;;;4.35;;
60700;SDS011;46541;49.894;10.886;2023-07-02T07:03:39;11.38;;;5.30;;
60700;SDS011;46541;49.894;10.886;2023-07-02T07:06:06;9.38;;;4.85;;
60700;SDS011;46541;49.894;10.886;2023-07-02T07:08:33;6.63;;;4.63;;
60700;SDS011;46541;49.894;10.886;2023-07-02T07:11:02;7.70;;;4.95;;
60700;SDS011;46541;49.894;10.886;2023-07-02T07:13:29;10.82;;;4.95;;
60700;SDS011;46541;49.894;10.886;2023-07-02T07:15:56;6.95;;;4.25;;
60700;SDS011;46541;49.894;10.886;2023-07-02T07:18:23;7.18;;;4.88;;
60700;SDS011;46541;49.894;10.886;2023-07-02T07:20:50;10.50;;;4.88;;
60700;SDS011;46541;49.894;10.886;2023-07-02T07:23:18;11.00;;;5.40;;
60700;SDS011;46541;49.894;10.886;2023-07-02T07:25:45;10.38;;;4.28;;
60700;SDS011;46541;49.894;10.886;2023-07-02T07:28:12;11.35;;;4.75;;
60700;SDS011;46541;49.894;10.886;2023-07-02T07:30:42;10.95;;;4.78;;
60700;SDS011;46541;49.894;10.886;2023-07-02T07:33:09;11.52;;;5.70;;
60700;SDS011;46541;49.894;10.886;2023-07-02T07:35:36;8.25;;;5.03;;
60700;SDS011;46541;49.894;10.886;2023-07-02T07:38:03;8.15;;;4.40;;
60700;SDS011;46541;49.894;10.886;2023-07-02T07:40:30;11.90;;;4.63;;
60700;SDS011;46541;49.894;10.886;2023-07-02T07:42:57;8.82;;;4.60;;
60700;SDS011;46541;49.894;10.886;2023-07-02T07:45:24;10.27;;;5.13;;
60700;SDS011;46541;49.894;10.886;2023-07-02T07:47:50;8.25;;;5.30;;
60700;SDS011;46541;49.894;10.886;2023-07-02T07:50:17;9.35;;;4.50;;
60700;SDS011;46541;49.894;10.886;2023-07-02T07:52:50;9.38;;;5.47;;
60700;SDS011;46541;49.894;10.886;2023-07-02T07:55:17;9.82;;;5.40;;
60700;SDS011;46541;49.894;10.886;2023-07-02T07:57:44;12.30;;;5.78;;
60700;SDS011;46541;49.894;10.886;2023-07-02T08:00:11;13.52;;;5.38;;
60700;SDS011;46541;49.894;10.886;2023-07-02T08:02:38;10.27;;;4.80;;
60700;SDS011;46541;49.894;10.886;2023-07-02T08:05:05;8.57;;;4.97;;
60700;SDS011;46541;49.894;10.886;2023-07-02T08:07:33;20.48;;;5.60;;
60700;SDS011;46541;49.894;10.886;2023-07-02T08:10:00;9.00;;;5.10;;
60700;SDS011;46541;49.894;10.886;2023-07-02T08:12:28;14.32;;;6.50;;
60700;SDS011;46541;49.894;10.886;2023-07-02T08:14:58;9.45;;;5.47;;
60700;SDS011;46541;49.894;10.886;2023-07-02T08:17:25;11.18;;;5.22;;
60700;SDS011;46541;49.894;10.886;2023-07-02T08:19:52;8.25;;;5.32;;
60700;SDS011;46541;49.894;10.886;2023-07-02T08:22:19;9.13;;;4.97;;
60700;SDS011;46541;49.894;10.886;2023-07-02T08:24:46;7.38;;;4.28;;
60700;SDS011;46541;49.894;10.886;2023-07-02T08:27:16;10.10;;;5.45;;
60700;SDS011;46541;49.894;10.886;2023-07-02T08:29:46;9.98;;;5.30;;
60700;SDS011;46541;49.894;10.886;2023-07-02T08:32:13;10.43;;;5.60;;
60700;SDS011;46541;49.894;10.886;2023-07-02T08:34:41;8.45;;;5.05;;
60700;SDS011;46541;49.894;10.886;2023-07-02T08:37:08;10.10;;;4.90;;
60700;SDS011;46541;49.894;10.886;2023-07-02T08:39:35;6.93;;;4.53;;
60700;SDS011;46541;49.894;10.886;2023-07-02T08:42:03;11.48;;;4.53;;
60700;SDS011;46541;49.894;10.886;2023-07-02T08:44:30;7.72;;;4.30;;
60700;SDS011;46541;49.894;10.886;2023-07-02T08:46:57;10.35;;;4.75;;
60700;SDS011;46541;49.894;10.886;2023-07-02T08:49:24;8.73;;;5.25;;
60700;SDS011;46541;49.894;10.886;2023-07-02T08:51:51;10.00;;;4.63;;
60700;SDS011;46541;49.894;10.886;2023-07-02T08:54:18;9.15;;;4.40;;
60700;SDS011;46541;49.894;10.886;2023-07-02T08:56:46;8.05;;;4.70;;
60700;SDS011;46541;49.894;10.886;2023-07-02T08:59:13;8.75;;;5.13;;
60700;SDS011;46541;49.894;10.886;2023-07-02T09:01:46;8.63;;;4.82;;
60700;SDS011;46541;49.894;10.886;2023-07-02T09:04:24;8.48;;;4.47;;
60700;SDS011;46541;49.894;10.886;2023-07-02T09:07:05;7.45;;;4.28;;
60700;SDS011;46541;49.894;10.886;2023-07-02T09:09:33;7.25;;;4.55;;
60700;SDS011;46541;49.894;10.886;2023-07-02T09:12:32;8.05;;;4.65;;
60700;SDS011;46541;49.894;10.886;2023-07-02T09:15:01;9.98;;;5.60;;
60700;SDS011;46541;49.894;10.886;2023-07-02T09:17:31;9.93;;;4.90;;
60700;SDS011;46541;49.894;10.886;2023-07-02T09:19:59;9.18;;;5.03;;
60700;SDS011;46541;49.894;10.886;2023-07-02T09:22:27;5.78;;;4.28;;
60700;SDS011;46541;49.894;10.886;2023-07-02T09:24:55;8.68;;;4.68;;
60700;SDS011;46541;49.894;10.886;2023-07-02T09:27:46;6.72;;;4.40;;
60700;SDS011;46541;49.894;10.886;2023-07-02T09:30:14;7.53;;;4.28;;
60700;SDS011;46541;49.894;10.886;2023-07-02T09:32:45;8.82;;;4.38;;
60700;SDS011;46541;49.894;10.886;2023-07-02T09:35:13;9.90;;;5.05;;
60700;SDS011;46541;49.894;10.886;2023-07-02T09:37:42;10.02;;;5.82;;
60700;SDS011;46541;49.894;10.886;2023-07-02T09:40:09;7.13;;;4.78;;
60700;SDS011;46541;49.894;10.886;2023-07-02T09:42:37;8.52;;;4.93;;
60700;SDS011;46541;49.894;10.886;2023-07-02T09:45:09;7.13;;;4.45;;
60700;SDS011;46541;49.894;10.886;2023-07-02T09:47:38;9.25;;;5.13;;
60700;SDS011;46541;49.894;10.886;2023-07-02T09:50:11;8.70;;;5.80;;
60700;SDS011;46541;49.894;10.886;2023-07-02T09:52:40;7.88;;;5.50;;
60700;SDS011;46541;49.894;10.886;2023-07-02T09:55:07;8.93;;;5.57;;
60700;SDS011;46541;49.894;10.886;2023-07-02T09:57:35;9.38;;;5.57;;
60700;SDS011;46541;49.894;10.886;2023-07-02T10:00:04;10.55;;;5.78;;
60700;SDS011;46541;49.894;10.886;2023-07-02T10:02:31;7.15;;;5.28;;
60700;SDS011;46541;49.894;10.886;2023-07-02T10:04:58;8.95;;;5.28;;
60700;SDS011;46541;49.894;10.886;2023-07-02T10:07:29;8.55;;;4.88;;
60700;SDS011;46541;49.894;10.886;2023-07-02T10:09:58;7.53;;;4.97;;
60700;SDS011;46541;49.894;10.886;2023-07-02T10:12:26;9.27;;;6.00;;
60700;SDS011;46541;49.894;10.886;2023-07-02T10:14:54;9.23;;;5.88;;
60700;SDS011;46541;49.894;10.886;2023-07-02T10:17:22;13.57;;;6.10;;
60700;SDS011;46541;49.894;10.886;2023-07-02T10:19:55;9.73;;;5.22;;
60700;SDS011;46541;49.894;10.886;2023-07-02T10:22:23;9.57;;;5.70;;
60700;SDS011;46541;49.894;10.886;2023-07-02T10:24:57;10.65;;;5.75;;
60700;SDS011;46541;49.894;10.886;2023-07-02T10:27:34;11.98;;;6.38;;
60700;SDS011;46541;49.894;10.886;2023-07-02T10:30:05;9.65;;;6.18;;
60700;SDS011;46541;49.894;10.886;2023-07-02T10:32:34;11.43;;;6.65;;
60700;SDS011;46541;49.894;10.886;2023-07-02T10:35:12;9.90;;;6.03;;
60700;SDS011;46541;49.894;10.886;2023-07-02T10:37:43;9.25;;;5.18;;
60700;SDS011;46541;49.894;10.886;2023-07-02T10:40:11;8.57;;;5.38;;
60700;SDS011;46541;49.894;10.886;2023-07-02T10:42:48;10.73;;;6.22;;
60700;SDS011;46541;49.894;10.886;2023-07-02T10:45:16;11.60;;;6.05;;
60700;SDS011;46541;49.894;10.886;2023-07-02T10:47:43;11.55;;;6.30;;
60700;SDS011;46541;49.894;10.886;2023-07-02T10:50:29;12.40;;;7.30;;
60700;SDS011;46541;49.894;10.886;2023-07-02T10:52:57;11.82;;;6.32;;
60700;SDS011;46541;49.894;10.886;2023-07-02T10:55:24;11.20;;;5.60;;
60700;SDS011;46541;49.894;10.886;2023-07-02T10:58:03;8.32;;;5.22;;
60700;SDS011;46541;49.894;10.886;2023-07-02T11:00:31;10.60;;;6.13;;
60700;SDS011;46541;49.894;10.886;2023-07-02T11:02:58;10.45;;;5.90;;
60700;SDS011;46541;49.894;10.886;2023-07-02T11:05:26;9.07;;;5.45;;
60700;SDS011;46541;49.894;10.886;2023-07-02T11:07:55;8.60;;;5.95;;
60700;SDS011;46541;49.894;10.886;2023-07-02T11:10:34;11.15;;;6.18;;
60700;SDS011;46541;49.894;10.886;2023-07-02T11:13:14;11.43;;;6.20;;
60700;SDS011;46541;49.894;10.886;2023-07-02T11:15:45;9.27;;;6.05;;
60700;SDS011;46541;49.894;10.886;2023-07-02T11:18:17;10.23;;;5.80;;
60700;SDS011;46541;49.894;10.886;2023-07-02T11:20:47;8.60;;;5.45;;
60700;SDS011;46541;49.894;10.886;2023-07-02T11:23:24;12.50;;;6.03;;
60700;SDS011;46541;49.894;10.886;2023-07-02T11:26:09;12.18;;;5.55;;
60700;SDS011;46541;49.894;10.886;2023-07-02T11:28:47;13.43;;;5.53;;
60700;SDS011;46541;49.894;10.886;2023-07-02T11:31:23;9.82;;;5.78;;
60700;SDS011;46541;49.894;10.886;2023-07-02T11:33:51;11.05;;;6.30;;
60700;SDS011;46541;49.894;10.886;2023-07-02T11:36:23;9.32;;;5.90;;
60700;SDS011;46541;49.894;10.886;2023-07-02T11:38:54;10.77;;;5.82;;
60700;SDS011;46541;49.894;10.886;2023-07-02T11:41:21;9.98;;;6.43;;
60700;SDS011;46541;49.894;10.886;2023-07-02T11:43:48;9.20;;;5.95;;
60700;SDS011;46541;49.894;10.886;2023-07-02T11:46:15;11.43;;;5.75;;
60700;SDS011;46541;49.894;10.886;2023-07-02T11:48:42;14.38;;;6.85;;
60700;SDS011;46541;49.894;10.886;2023-07-02T11:51:08;10.27;;;6.13;;
60700;SDS011;46541;49.894;10.886;2023-07-02T11:53:35;8.45;;;5.70;;
60700;SDS011;46541;49.894;10.886;2023-07-02T11:56:02;10.13;;;6.22;;
60700;SDS011;46541;49.894;10.886;2023-07-02T11:58:29;11.15;;;6.68;;
60700;SDS011;46541;49.894;10.886;2023-07-02T12:00:56;7.93;;;6.18;;
60700;SDS011;46541;49.894;10.886;2023-07-02T12:03:23;10.95;;;6.75;;
60700;SDS011;46541;49.894;10.886;2023-07-02T12:05:49;10.20;;;5.40;;
60700;SDS011;46541;49.894;10.886;2023-07-02T12:08:17;12.10;;;5.63;;
60700;SDS011;46541;49.894;10.886;2023-07-02T12:10:44;8.15;;;5.70;;
60700;SDS011;46541;49.894;10.886;2023-07-02T12:13:11;9.43;;;5.53;;
60700;SDS011;46541;49.894;10.886;2023-07-02T12:15:38;10.02;;;6.22;;
60700;SDS011;46541;49.894;10.886;2023-07-02T12:18:05;10.38;;;5.28;;
60700;SDS011;46541;49.894;10.886;2023-07-02T12:20:32;8.27;;;5.63;;
60700;SDS011;46541;49.894;10.886;2023-07-02T12:22:58;8.63;;;5.88;;
60700;SDS011;46541;49.894;10.886;2023-07-02T12:25:26;9.80;;;6.05;;
60700;SDS011;46541;49.894;10.886;2023-07-02T12:27:53;8.23;;;5.53;;
60700;SDS011;46541;49.894;10.886;2023-07-02T12:30:20;8.80;;;5.30;;
60700;SDS011;46541;49.894;10.886;2023-07-02T12:32:47;11.80;;;6.22;;
60700;SDS011;46541;49.894;10.886;2023-07-02T12:35:14;10.02;;;6.05;;
60700;SDS011;46541;49.894;10.886;2023-07-02T12:37:45;12.63;;;6.57;;
60700;SDS011;46541;49.894;10.886;2023-07-02T12:40:13;9.23;;;5.93;;
60700;SDS011;46541;49.894;10.886;2023-07-02T12:42:41;9.23;;;6.00;;
60700;SDS011;46541;49.894;10.886;2023-07-02T12:45:08;9.73;;;6.07;;
60700;SDS011;46541;49.894;10.886;2023-07-02T12:47:38;8.43;;;6.05;;
60700;SDS011;46541;49.894;10.886;2023-07-02T12:50:05;11.32;;;5.97;;
60700;SDS011;46541;49.894;10.886;2023-07-02T12:52:32;10.50;;;5.68;;
60700;SDS011;46541;49.894;10.886;2023-07-02T12:55:00;10.15;;;6.13;;
60700;SDS011;46541;49.894;10.886;2023-07-02T12:57:27;9.20;;;6.05;;
60700;SDS011;46541;49.894;10.886;2023-07-02T12:59:55;9.52;;;6.25;;
60700;SDS011;46541;49.894;10.886;2023-07-02T13:02:22;8.95;;;5.60;;
60700;SDS011;46541;49.894;10.886;2023-07-02T13:04:50;11.07;;;6.20;;
60700;SDS011;46541;49.894;10.886;2023-07-02T13:07:17;11.00;;;6.60;;
60700;SDS011;46541;49.894;10.886;2023-07-02T13:09:44;9.02;;;5.80;;
60700;SDS011;46541;49.894;10.886;2023-07-02T13:12:11;7.50;;;5.60;;
60700;SDS011;46541;49.894;10.886;2023-07-02T13:14:38;11.25;;;5.90;;
60700;SDS011;46541;49.894;10.886;2023-07-02T13:17:05;8.93;;;6.07;;
60700;SDS011;46541;49.894;10.886;2023-07-02T13:19:32;8.50;;;5.60;;
60700;SDS011;46541;49.894;10.886;2023-07-02T13:21:59;10.05;;;5.75;;
60700;SDS011;46541;49.894;10.886;2023-07-02T13:24:28;7.20;;;5.20;;
60700;SDS011;46541;49.894;10.886;2023-07-02T13:26:59;22.52;;;13.50;;
60700;SDS011;46541;49.894;10.886;2023-07-02T13:29:32;11.75;;;6.88;;
60700;SDS011;46541;49.894;10.886;2023-07-02T13:31:58;8.40;;;6.47;;
60700;SDS011;46541;49.894;10.886;2023-07-02T13:34:25;8.50;;;6.55;;
60700;SDS011;46541;49.894;10.886;2023-07-02T13:36:52;9.15;;;6.22;;
60700;SDS011;46541;49.894;10.886;2023-07-02T13:39:19;9.73;;;6.50;;
60700;SDS011;46541;49.894;10.886;2023-07-02T13:41:45;8.88;;;6.55;;
60700;SDS011;46541;49.894;10.886;2023-07-02T13:44:13;9.95;;;6.28;;
60700;SDS011;46541;49.894;10.886;2023-07-02T13:46:42;8.43;;;6.53;;
60700;SDS011;46541;49.894;10.886;2023-07-02T13:49:10;11.70;;;6.85;;
60700;SDS011;46541;49.894;10.886;2023-07-02T13:51:37;11.48;;;7.47;;
60700;SDS011;46541;49.894;10.886;2023-07-02T13:54:04;9.93;;;7.20;;
60700;SDS011;46541;49.894;10.886;2023-07-02T13:56:31;10.93;;;7.75;;
60700;SDS011;46541;49.894;10.886;2023-07-02T14:01:26;14.85;;;8.52;;
60700;SDS011;46541;49.894;10.886;2023-07-02T14:03:53;11.85;;;8.65;;
60700;SDS011;46541;49.894;10.886;2023-07-02T14:06:21;13.48;;;8.45;;
60700;SDS011;46541;49.894;10.886;2023-07-02T14:08:48;13.38;;;9.07;;
60700;SDS011;46541;49.894;10.886;2023-07-02T14:11:15;13.57;;;8.40;;
60700;SDS011;46541;49.894;10.886;2023-07-02T14:13:42;16.95;;;8.68;;
60700;SDS011;46541;49.894;10.886;2023-07-02T14:16:09;13.82;;;8.70;;
60700;SDS011;46541;49.894;10.886;2023-07-02T14:18:36;13.50;;;9.00;;
60700;SDS011;46541;49.894;10.886;2023-07-02T14:21:02;15.02;;;9.80;;
60700;SDS011;46541;49.894;10.886;2023-07-02T14:23:29;13.07;;;8.73;;
60700;SDS011;46541;49.894;10.886;2023-07-02T14:25:56;12.90;;;8.52;;
60700;SDS011;46541;49.894;10.886;2023-07-02T14:28:23;14.27;;;8.63;;
60700;SDS011;46541;49.894;10.886;2023-07-02T14:30:55;15.38;;;9.38;;
60700;SDS011;46541;49.894;10.886;2023-07-02T14:33:24;12.90;;;8.20;;
60700;SDS011;46541;49.894;10.886;2023-07-02T14:35:51;13.88;;;8.38;;
60700;SDS011;46541;49.894;10.886;2023-07-02T14:38:18;12.48;;;8.25;;
60700;SDS011;46541;49.894;10.886;2023-07-02T14:40:45;13.13;;;8.32;;
60700;SDS011;46541;49.894;10.886;2023-07-02T14:43:14;14.73;;;9.52;;